sensor_id;sensor_type;location;lat;lon;timestamp;P1;durP1;ratioP1;P2;durP2;ratioP2
43606;SDS011;29197;44.788;10.366;2023-02-05T00:01:10;123.73;;;59.87;;
43606;SDS011;29197;44.788;10.366;2023-02-05T00:03:58;117.93;;;58.37;;
43606;SDS011;29197;44.788;10.366;2023-02-05T00:06:47;113.93;;;55.80;;
43606;SDS011;29197;44.788;10.366;2023-02-05T00:09:37;123.80;;;54.93;;
43606;SDS011;29197;44.788;10.366;2023-02-05T00:12:26;112.97;;;56.40;;
43606;SDS011;29197;44.788;10.366;2023-02-05T00:15:15;107.87;;;53.93;;
43606;SDS011;29197;44.788;10.366;2023-02-05T00:18:03;106.47;;;52.67;;
43606;SDS011;29197;44.788;10.366;2023-02-05T00:20:52;105.10;;;53.70;;
43606;SDS011;29197;44.788;10.366;2023-02-05T00:23:40;106.13;;;52.10;;
43606;SDS011;29197;44.788;10.366;2023-02-05T00:26:30;105.47;;;52.60;;
43606;SDS011;29197;44.788;10.366;2023-02-05T00:29:20;106.13;;;50.57;;
43606;SDS011;29197;44.788;10.366;2023-02-05T00:32:08;101.93;;;50.47;;
43606;SDS011;29197;44.788;10.366;2023-02-05T00:34:57;99.20;;;48.43;;
43606;SDS011;29197;44.788;10.366;2023-02-05T00:37:45;94.47;;;47.87;;
43606;SDS011;29197;44.788;10.366;2023-02-05T00:40:33;98.87;;;49.30;;
43606;SDS011;29197;44.788;10.366;2023-02-05T00:43:23;97.60;;;47.53;;
43606;SDS011;29197;44.788;10.366;2023-02-05T00:46:12;97.20;;;46.97;;
43606;SDS011;29197;44.788;10.366;2023-02-05T00:49:01;91.43;;;46.90;;
43606;SDS011;29197;44.788;10.366;2023-02-05T00:51:50;96.60;;;48.17;;
43606;SDS011;29197;44.788;10.366;2023-02-05T00:54:38;98.07;;;47.90;;
43606;SDS011;29197;44.788;10.366;2023-02-05T00:57:26;97.30;;;49.07;;
43606;SDS011;29197;44.788;10.366;2023-02-05T01:00:17;93.87;;;47.07;;
43606;SDS011;29197;44.788;10.366;2023-02-05T01:03:05;92.07;;;45.13;;
43606;SDS011;29197;44.788;10.366;2023-02-05T01:05:54;91.93;;;46.40;;
43606;SDS011;29197;44.788;10.366;2023-02-05T01:08:43;97.23;;;45.77;;
43606;SDS011;29197;44.788;10.366;2023-02-05T01:11:32;91.40;;;47.13;;
43606;SDS011;29197;44.788;10.366;2023-02-05T01:14:20;90.00;;;44.90;;
43606;SDS011;29197;44.788;10.366;2023-02-05T01:17:10;84.00;;;43.27;;
43606;SDS011;29197;44.788;10.366;2023-02-05T01:19:59;87.20;;;42.90;;
43606;SDS011;29197;44.788;10.366;2023-02-05T01:22:47;79.47;;;42.27;;
43606;SDS011;29197;44.788;10.366;2023-02-05T01:25:36;86.70;;;41.90;;
43606;SDS011;29197;44.788;10.366;2023-02-05T01:28:25;86.17;;;42.80;;
43606;SDS011;29197;44.788;10.366;2023-02-05T01:31:13;88.70;;;44.27;;
43606;SDS011;29197;44.788;10.366;2023-02-05T01:34:03;73.90;;;41.77;;
43606;SDS011;29197;44.788;10.366;2023-02-05T01:36:52;75.80;;;38.40;;
43606;SDS011;29197;44.788;10.366;2023-02-05T01:39:40;70.90;;;38.87;;
43606;SDS011;29197;44.788;10.366;2023-02-05T01:42:29;62.47;;;35.13;;
43606;SDS011;29197;44.788;10.366;2023-02-05T01:48:47;57.00;;;34.90;;
43606;SDS011;29197;44.788;10.366;2023-02-05T01:51:41;59.97;;;34.37;;
43606;SDS011;29197;44.788;10.366;2023-02-05T01:54:32;59.80;;;34.13;;
43606;SDS011;29197;44.788;10.366;2023-02-05T01:57:24;57.80;;;33.50;;
43606;SDS011;29197;44.788;10.366;2023-02-05T02:00:12;62.47;;;35.83;;
43606;SDS011;29197;44.788;10.366;2023-02-05T02:03:01;59.47;;;35.40;;
43606;SDS011;29197;44.788;10.366;2023-02-05T02:05:51;63.67;;;35.77;;
43606;SDS011;29197;44.788;10.366;2023-02-05T02:08:41;59.23;;;34.87;;
43606;SDS011;29197;44.788;10.366;2023-02-05T02:11:31;61.27;;;34.40;;
43606;SDS011;29197;44.788;10.366;2023-02-05T02:14:22;62.93;;;35.17;;
43606;SDS011;29197;44.788;10.366;2023-02-05T02:17:12;60.87;;;35.13;;
43606;SDS011;29197;44.788;10.366;2023-02-05T02:20:03;60.87;;;35.40;;
43606;SDS011;29197;44.788;10.366;2023-02-05T02:22:57;64.87;;;35.40;;
43606;SDS011;29197;44.788;10.366;2023-02-05T02:26:13;58.17;;;33.37;;
43606;SDS011;29197;44.788;10.366;2023-02-05T02:29:15;58.60;;;35.07;;
43606;SDS011;29197;44.788;10.366;2023-02-05T02:32:09;56.57;;;34.07;;
43606;SDS011;29197;44.788;10.366;2023-02-05T02:35:04;53.63;;;33.97;;
43606;SDS011;29197;44.788;10.366;2023-02-05T02:37:56;57.30;;;33.57;;
43606;SDS011;29197;44.788;10.366;2023-02-05T02:40:49;55.73;;;34.80;;
43606;SDS011;29197;44.788;10.366;2023-02-05T02:43:40;56.50;;;34.47;;
43606;SDS011;29197;44.788;10.366;2023-02-05T02:46:37;56.63;;;32.37;;
43606;SDS011;29197;44.788;10.366;2023-02-05T02:49:29;50.50;;;31.43;;
43606;SDS011;29197;44.788;10.366;2023-02-05T02:52:19;50.07;;;30.33;;
43606;SDS011;29197;44.788;10.366;2023-02-05T02:55:11;45.27;;;29.23;;
43606;SDS011;29197;44.788;10.366;2023-02-05T02:58:02;47.23;;;29.93;;
43606;SDS011;29197;44.788;10.366;2023-02-05T03:00:53;45.20;;;28.80;;
43606;SDS011;29197;44.788;10.366;2023-02-05T03:03:46;47.43;;;29.77;;
43606;SDS011;29197;44.788;10.366;2023-02-05T03:06:40;44.37;;;28.53;;
43606;SDS011;29197;44.788;10.366;2023-02-05T03:09:33;46.70;;;28.67;;
43606;SDS011;29197;44.788;10.366;2023-02-05T03:12:28;51.67;;;29.43;;
43606;SDS011;29197;44.788;10.366;2023-02-05T03:15:17;49.27;;;30.07;;
43606;SDS011;29197;44.788;10.366;2023-02-05T03:18:06;47.20;;;29.80;;
43606;SDS011;29197;44.788;10.366;2023-02-05T03:20:57;50.00;;;29.87;;
43606;SDS011;29197;44.788;10.366;2023-02-05T03:23:47;52.20;;;30.70;;
43606;SDS011;29197;44.788;10.366;2023-02-05T03:26:36;48.00;;;28.70;;
43606;SDS011;29197;44.788;10.366;2023-02-05T03:29:26;48.80;;;28.97;;
43606;SDS011;29197;44.788;10.366;2023-02-05T03:32:22;49.40;;;27.80;;
43606;SDS011;29197;44.788;10.366;2023-02-05T03:35:24;51.10;;;28.37;;
43606;SDS011;29197;44.788;10.366;2023-02-05T03:38:25;45.63;;;27.20;;
43606;SDS011;29197;44.788;10.366;2023-02-05T03:41:26;48.63;;;28.77;;
43606;SDS011;29197;44.788;10.366;2023-02-05T03:44:45;51.73;;;29.53;;
43606;SDS011;29197;44.788;10.366;2023-02-05T03:47:48;48.97;;;27.57;;
43606;SDS011;29197;44.788;10.366;2023-02-05T03:50:50;50.27;;;28.43;;
43606;SDS011;29197;44.788;10.366;2023-02-05T03:53:49;50.97;;;28.93;;
43606;SDS011;29197;44.788;10.366;2023-02-05T03:56:46;47.73;;;28.27;;
43606;SDS011;29197;44.788;10.366;2023-02-05T03:59:39;49.97;;;28.97;;
43606;SDS011;29197;44.788;10.366;2023-02-05T04:02:29;54.07;;;29.30;;
43606;SDS011;29197;44.788;10.366;2023-02-05T04:05:18;49.10;;;28.90;;
43606;SDS011;29197;44.788;10.366;2023-02-05T04:08:08;50.97;;;28.53;;
43606;SDS011;29197;44.788;10.366;2023-02-05T04:10:58;51.30;;;29.13;;
43606;SDS011;29197;44.788;10.366;2023-02-05T04:13:46;46.27;;;28.67;;
43606;SDS011;29197;44.788;10.366;2023-02-05T04:16:35;53.67;;;30.10;;
43606;SDS011;29197;44.788;10.366;2023-02-05T04:19:23;51.17;;;28.83;;
43606;SDS011;29197;44.788;10.366;2023-02-05T04:22:12;52.57;;;28.30;;
43606;SDS011;29197;44.788;10.366;2023-02-05T04:25:00;47.80;;;27.43;;
43606;SDS011;29197;44.788;10.366;2023-02-05T04:27:50;48.90;;;28.20;;
43606;SDS011;29197;44.788;10.366;2023-02-05T04:30:40;53.60;;;30.43;;
43606;SDS011;29197;44.788;10.366;2023-02-05T04:33:28;49.90;;;29.07;;
43606;SDS011;29197;44.788;10.366;2023-02-05T04:36:17;46.23;;;27.77;;
43606;SDS011;29197;44.788;10.366;2023-02-05T04:39:06;48.77;;;27.97;;
43606;SDS011;29197;44.788;10.366;2023-02-05T04:41:54;48.43;;;27.87;;
43606;SDS011;29197;44.788;10.366;2023-02-05T04:44:44;49.27;;;27.70;;
43606;SDS011;29197;44.788;10.366;2023-02-05T04:47:33;53.17;;;28.17;;
43606;SDS011;29197;44.788;10.366;2023-02-05T04:50:21;50.63;;;27.13;;
43606;SDS011;29197;44.788;10.366;2023-02-05T04:53:10;48.43;;;26.97;;
43606;SDS011;29197;44.788;10.366;2023-02-05T04:56:03;46.37;;;27.87;;
43606;SDS011;29197;44.788;10.366;2023-02-05T04:58:52;47.87;;;26.60;;
43606;SDS011;29197;44.788;10.366;2023-02-05T05:01:42;47.23;;;25.93;;
43606;SDS011;29197;44.788;10.366;2023-02-05T05:04:30;43.57;;;24.40;;
43606;SDS011;29197;44.788;10.366;2023-02-05T05:07:19;47.37;;;25.73;;
43606;SDS011;29197;44.788;10.366;2023-02-05T05:10:08;45.17;;;25.90;;
43606;SDS011;29197;44.788;10.366;2023-02-05T05:12:57;44.57;;;25.83;;
43606;SDS011;29197;44.788;10.366;2023-02-05T05:15:51;48.57;;;26.73;;
43606;SDS011;29197;44.788;10.366;2023-02-05T05:18:42;42.97;;;24.37;;
43606;SDS011;29197;44.788;10.366;2023-02-05T05:21:30;42.47;;;23.43;;
43606;SDS011;29197;44.788;10.366;2023-02-05T05:24:18;45.40;;;23.07;;
43606;SDS011;29197;44.788;10.366;2023-02-05T05:27:07;39.00;;;21.67;;
43606;SDS011;29197;44.788;10.366;2023-02-05T05:29:55;43.37;;;23.93;;
43606;SDS011;29197;44.788;10.366;2023-02-05T05:32:44;45.63;;;24.23;;
43606;SDS011;29197;44.788;10.366;2023-02-05T05:35:34;37.90;;;21.70;;
43606;SDS011;29197;44.788;10.366;2023-02-05T05:38:22;37.70;;;21.63;;
43606;SDS011;29197;44.788;10.366;2023-02-05T05:41:12;35.30;;;19.23;;
43606;SDS011;29197;44.788;10.366;2023-02-05T05:44:22;32.30;;;19.10;;
43606;SDS011;29197;44.788;10.366;2023-02-05T05:47:11;34.97;;;20.17;;
43606;SDS011;29197;44.788;10.366;2023-02-05T05:49:59;35.60;;;19.73;;
43606;SDS011;29197;44.788;10.366;2023-02-05T05:52:49;39.90;;;20.90;;
43606;SDS011;29197;44.788;10.366;2023-02-05T05:55:38;37.37;;;21.57;;
43606;SDS011;29197;44.788;10.366;2023-02-05T05:58:27;46.93;;;24.50;;
43606;SDS011;29197;44.788;10.366;2023-02-05T06:01:16;43.90;;;23.77;;
43606;SDS011;29197;44.788;10.366;2023-02-05T06:04:07;44.77;;;25.40;;
43606;SDS011;29197;44.788;10.366;2023-02-05T06:06:56;47.20;;;26.00;;
43606;SDS011;29197;44.788;10.366;2023-02-05T06:09:46;53.60;;;26.43;;
43606;SDS011;29197;44.788;10.366;2023-02-05T06:12:34;50.63;;;25.60;;
43606;SDS011;29197;44.788;10.366;2023-02-05T06:15:23;49.37;;;27.53;;
43606;SDS011;29197;44.788;10.366;2023-02-05T06:18:12;53.80;;;27.27;;
43606;SDS011;29197;44.788;10.366;2023-02-05T06:21:01;55.93;;;27.50;;
43606;SDS011;29197;44.788;10.366;2023-02-05T06:23:51;52.60;;;27.47;;
43606;SDS011;29197;44.788;10.366;2023-02-05T06:26:41;56.93;;;29.67;;
43606;SDS011;29197;44.788;10.366;2023-02-05T06:29:29;57.40;;;28.53;;
43606;SDS011;29197;44.788;10.366;2023-02-05T06:32:18;59.63;;;28.63;;
43606;SDS011;29197;44.788;10.366;2023-02-05T06:35:07;57.40;;;27.73;;
43606;SDS011;29197;44.788;10.366;2023-02-05T06:37:55;61.50;;;27.47;;
43606;SDS011;29197;44.788;10.366;2023-02-05T06:40:45;49.93;;;27.10;;
43606;SDS011;29197;44.788;10.366;2023-02-05T06:43:35;51.93;;;25.80;;
43606;SDS011;29197;44.788;10.366;2023-02-05T06:46:24;53.17;;;26.40;;
43606;SDS011;29197;44.788;10.366;2023-02-05T06:49:12;52.07;;;24.40;;
43606;SDS011;29197;44.788;10.366;2023-02-05T06:52:01;43.67;;;24.93;;
43606;SDS011;29197;44.788;10.366;2023-02-05T06:54:49;52.50;;;23.97;;
43606;SDS011;29197;44.788;10.366;2023-02-05T06:57:38;48.53;;;24.10;;
43606;SDS011;29197;44.788;10.366;2023-02-05T07:00:28;50.97;;;23.33;;
43606;SDS011;29197;44.788;10.366;2023-02-05T07:03:18;45.47;;;22.20;;
43606;SDS011;29197;44.788;10.366;2023-02-05T07:06:06;42.20;;;22.97;;
43606;SDS011;29197;44.788;10.366;2023-02-05T07:08:55;44.40;;;21.77;;
43606;SDS011;29197;44.788;10.366;2023-02-05T07:11:45;47.23;;;22.70;;
43606;SDS011;29197;44.788;10.366;2023-02-05T07:14:35;40.23;;;21.20;;
43606;SDS011;29197;44.788;10.366;2023-02-05T07:17:25;43.70;;;21.90;;
43606;SDS011;29197;44.788;10.366;2023-02-05T07:20:13;42.60;;;21.80;;
43606;SDS011;29197;44.788;10.366;2023-02-05T07:23:04;41.30;;;21.10;;
43606;SDS011;29197;44.788;10.366;2023-02-05T07:25:53;45.27;;;20.73;;
43606;SDS011;29197;44.788;10.366;2023-02-05T07:28:42;41.60;;;20.63;;
43606;SDS011;29197;44.788;10.366;2023-02-05T07:31:31;47.17;;;23.70;;
43606;SDS011;29197;44.788;10.366;2023-02-05T07:34:21;43.90;;;21.70;;
43606;SDS011;29197;44.788;10.366;2023-02-05T07:37:10;43.83;;;22.67;;
43606;SDS011;29197;44.788;10.366;2023-02-05T07:39:59;43.63;;;21.53;;
43606;SDS011;29197;44.788;10.366;2023-02-05T07:42:48;38.43;;;19.77;;
43606;SDS011;29197;44.788;10.366;2023-02-05T07:45:36;39.23;;;20.43;;
43606;SDS011;29197;44.788;10.366;2023-02-05T07:48:25;37.20;;;20.17;;
43606;SDS011;29197;44.788;10.366;2023-02-05T07:51:16;38.80;;;19.03;;
43606;SDS011;29197;44.788;10.366;2023-02-05T07:54:06;40.90;;;19.37;;
43606;SDS011;29197;44.788;10.366;2023-02-05T07:56:55;34.77;;;18.30;;
43606;SDS011;29197;44.788;10.366;2023-02-05T07:59:45;33.10;;;18.57;;
43606;SDS011;29197;44.788;10.366;2023-02-05T08:02:34;36.17;;;18.37;;
43606;SDS011;29197;44.788;10.366;2023-02-05T08:05:22;37.27;;;18.70;;
43606;SDS011;29197;44.788;10.366;2023-02-05T08:08:12;35.90;;;17.60;;
43606;SDS011;29197;44.788;10.366;2023-02-05T08:11:02;36.17;;;18.93;;
43606;SDS011;29197;44.788;10.366;2023-02-05T08:13:52;36.17;;;18.60;;
43606;SDS011;29197;44.788;10.366;2023-02-05T08:16:40;40.77;;;19.07;;
43606;SDS011;29197;44.788;10.366;2023-02-05T08:19:29;39.73;;;19.80;;
43606;SDS011;29197;44.788;10.366;2023-02-05T08:22:17;41.27;;;19.63;;
43606;SDS011;29197;44.788;10.366;2023-02-05T08:25:08;49.20;;;21.40;;
43606;SDS011;29197;44.788;10.366;2023-02-05T08:27:58;42.10;;;20.30;;
43606;SDS011;29197;44.788;10.366;2023-02-05T08:30:47;42.63;;;22.03;;
43606;SDS011;29197;44.788;10.366;2023-02-05T08:33:35;46.83;;;23.97;;
43606;SDS011;29197;44.788;10.366;2023-02-05T08:36:24;45.57;;;24.80;;
43606;SDS011;29197;44.788;10.366;2023-02-05T08:39:13;44.27;;;22.83;;
43606;SDS011;29197;44.788;10.366;2023-02-05T08:42:03;41.97;;;21.87;;
43606;SDS011;29197;44.788;10.366;2023-02-05T08:44:51;43.97;;;22.00;;
43606;SDS011;29197;44.788;10.366;2023-02-05T08:47:44;42.73;;;20.43;;
43606;SDS011;29197;44.788;10.366;2023-02-05T08:50:32;44.57;;;20.33;;
43606;SDS011;29197;44.788;10.366;2023-02-05T08:53:20;39.97;;;20.23;;
43606;SDS011;29197;44.788;10.366;2023-02-05T08:56:09;36.83;;;19.30;;
43606;SDS011;29197;44.788;10.366;2023-02-05T08:59:01;37.50;;;18.90;;
43606;SDS011;29197;44.788;10.366;2023-02-05T09:01:49;40.80;;;20.70;;
43606;SDS011;29197;44.788;10.366;2023-02-05T09:04:38;41.93;;;21.33;;
43606;SDS011;29197;44.788;10.366;2023-02-05T09:07:26;43.33;;;20.47;;
43606;SDS011;29197;44.788;10.366;2023-02-05T09:10:15;29.50;;;16.17;;
43606;SDS011;29197;44.788;10.366;2023-02-05T09:13:04;23.50;;;10.80;;
43606;SDS011;29197;44.788;10.366;2023-02-05T09:15:54;16.50;;;7.60;;
43606;SDS011;29197;44.788;10.366;2023-02-05T09:18:42;22.27;;;8.07;;
43606;SDS011;29197;44.788;10.366;2023-02-05T09:21:31;17.83;;;8.30;;
43606;SDS011;29197;44.788;10.366;2023-02-05T09:24:20;13.50;;;6.53;;
43606;SDS011;29197;44.788;10.366;2023-02-05T09:27:08;17.83;;;7.77;;
43606;SDS011;29197;44.788;10.366;2023-02-05T09:29:59;16.10;;;7.70;;
43606;SDS011;29197;44.788;10.366;2023-02-05T09:32:49;14.70;;;6.10;;
43606;SDS011;29197;44.788;10.366;2023-02-05T09:35:38;13.23;;;6.87;;
43606;SDS011;29197;44.788;10.366;2023-02-05T09:38:26;15.73;;;6.57;;
43606;SDS011;29197;44.788;10.366;2023-02-05T09:41:16;16.97;;;7.30;;
43606;SDS011;29197;44.788;10.366;2023-02-05T09:44:13;20.40;;;6.73;;
43606;SDS011;29197;44.788;10.366;2023-02-05T09:47:07;17.03;;;6.13;;
43606;SDS011;29197;44.788;10.366;2023-02-05T09:50:05;16.90;;;7.77;;
43606;SDS011;29197;44.788;10.366;2023-02-05T09:53:02;25.47;;;11.70;;
43606;SDS011;29197;44.788;10.366;2023-02-05T09:55:53;31.27;;;13.83;;
43606;SDS011;29197;44.788;10.366;2023-02-05T09:58:41;28.03;;;14.07;;
43606;SDS011;29197;44.788;10.366;2023-02-05T10:01:39;25.57;;;12.77;;
43606;SDS011;29197;44.788;10.366;2023-02-05T10:04:30;25.50;;;11.00;;
43606;SDS011;29197;44.788;10.366;2023-02-05T10:07:29;23.50;;;10.63;;
43606;SDS011;29197;44.788;10.366;2023-02-05T10:10:26;24.57;;;12.13;;
43606;SDS011;29197;44.788;10.366;2023-02-05T10:16:30;29.67;;;14.83;;
43606;SDS011;29197;44.788;10.366;2023-02-05T10:19:39;25.13;;;12.47;;
43606;SDS011;29197;44.788;10.366;2023-02-05T10:22:42;26.17;;;12.13;;
43606;SDS011;29197;44.788;10.366;2023-02-05T10:25:47;21.93;;;10.77;;
43606;SDS011;29197;44.788;10.366;2023-02-05T10:29:04;22.33;;;11.33;;
43606;SDS011;29197;44.788;10.366;2023-02-05T10:32:04;24.07;;;10.97;;
43606;SDS011;29197;44.788;10.366;2023-02-05T10:35:02;20.93;;;9.07;;
43606;SDS011;29197;44.788;10.366;2023-02-05T10:38:07;23.20;;;10.37;;
43606;SDS011;29197;44.788;10.366;2023-02-05T10:41:03;20.03;;;9.20;;
43606;SDS011;29197;44.788;10.366;2023-02-05T10:43:56;21.97;;;10.43;;
43606;SDS011;29197;44.788;10.366;2023-02-05T10:46:50;18.20;;;9.30;;
43606;SDS011;29197;44.788;10.366;2023-02-05T10:49:43;19.10;;;9.18;;
43606;SDS011;29197;44.788;10.366;2023-02-05T11:07:40;16.90;;;8.27;;
43606;SDS011;29197;44.788;10.366;2023-02-05T11:10:31;17.98;;;8.60;;
43606;SDS011;29197;44.788;10.366;2023-02-05T11:13:22;20.40;;;8.70;;
43606;SDS011;29197;44.788;10.366;2023-02-05T11:16:12;17.95;;;8.00;;
43606;SDS011;29197;44.788;10.366;2023-02-05T11:19:01;16.92;;;8.88;;
43606;SDS011;29197;44.788;10.366;2023-02-05T11:21:51;23.93;;;9.20;;
43606;SDS011;29197;44.788;10.366;2023-02-05T11:24:42;18.00;;;7.45;;
43606;SDS011;29197;44.788;10.366;2023-02-05T11:27:30;15.32;;;9.02;;
43606;SDS011;29197;44.788;10.366;2023-02-05T11:38:29;19.40;;;9.10;;
43606;SDS011;29197;44.788;10.366;2023-02-05T11:41:44;21.83;;;9.20;;
43606;SDS011;29197;44.788;10.366;2023-02-05T11:44:40;19.98;;;10.13;;
43606;SDS011;29197;44.788;10.366;2023-02-05T11:47:35;18.05;;;8.45;;
43606;SDS011;29197;44.788;10.366;2023-02-05T11:50:27;23.50;;;10.55;;
43606;SDS011;29197;44.788;10.366;2023-02-05T11:53:17;22.45;;;10.68;;
43606;SDS011;29197;44.788;10.366;2023-02-05T12:00:21;29.50;;;15.55;;
43606;SDS011;29197;44.788;10.366;2023-02-05T12:03:15;20.35;;;10.75;;
43606;SDS011;29197;44.788;10.366;2023-02-05T12:06:08;22.08;;;10.65;;
43606;SDS011;29197;44.788;10.366;2023-02-05T12:16:53;24.83;;;12.65;;
43606;SDS011;29197;44.788;10.366;2023-02-05T12:19:50;24.27;;;12.40;;
43606;SDS011;29197;44.788;10.366;2023-02-05T12:22:48;24.10;;;13.15;;
43606;SDS011;29197;44.788;10.366;2023-02-05T12:25:50;26.48;;;12.77;;
43606;SDS011;29197;44.788;10.366;2023-02-05T12:29:01;28.75;;;12.90;;
43606;SDS011;29197;44.788;10.366;2023-02-05T12:40:12;22.63;;;9.75;;
43606;SDS011;29197;44.788;10.366;2023-02-05T12:43:13;27.07;;;11.90;;
43606;SDS011;29197;44.788;10.366;2023-02-05T12:49:36;21.07;;;10.80;;
43606;SDS011;29197;44.788;10.366;2023-02-05T12:52:40;22.77;;;10.83;;
43606;SDS011;29197;44.788;10.366;2023-02-05T12:55:45;27.17;;;12.60;;
43606;SDS011;29197;44.788;10.366;2023-02-05T12:58:45;27.97;;;14.40;;
43606;SDS011;29197;44.788;10.366;2023-02-05T13:01:46;26.37;;;13.03;;
43606;SDS011;29197;44.788;10.366;2023-02-05T13:05:15;22.60;;;11.07;;
43606;SDS011;29197;44.788;10.366;2023-02-05T13:12:14;16.30;;;8.20;;
43606;SDS011;29197;44.788;10.366;2023-02-05T13:15:19;13.83;;;6.67;;
43606;SDS011;29197;44.788;10.366;2023-02-05T13:18:11;11.63;;;6.13;;
43606;SDS011;29197;44.788;10.366;2023-02-05T13:21:06;8.43;;;5.70;;
43606;SDS011;29197;44.788;10.366;2023-02-05T13:24:22;9.67;;;4.70;;
43606;SDS011;29197;44.788;10.366;2023-02-05T13:31:35;9.43;;;4.30;;
43606;SDS011;29197;44.788;10.366;2023-02-05T13:34:45;9.30;;;4.00;;
43606;SDS011;29197;44.788;10.366;2023-02-05T13:37:42;8.33;;;4.70;;
43606;SDS011;29197;44.788;10.366;2023-02-05T13:40:52;7.63;;;4.17;;
43606;SDS011;29197;44.788;10.366;2023-02-05T14:12:06;2.07;;;1.67;;
43606;SDS011;29197;44.788;10.366;2023-02-05T14:15:23;5.20;;;2.00;;
43606;SDS011;29197;44.788;10.366;2023-02-05T14:22:45;4.83;;;1.63;;
43606;SDS011;29197;44.788;10.366;2023-02-05T14:29:41;5.33;;;1.57;;
43606;SDS011;29197;44.788;10.366;2023-02-05T14:33:26;2.27;;;1.40;;
43606;SDS011;29197;44.788;10.366;2023-02-05T14:36:34;2.10;;;1.30;;
43606;SDS011;29197;44.788;10.366;2023-02-05T14:39:42;1.23;;;1.10;;
43606;SDS011;29197;44.788;10.366;2023-02-05T14:46:34;3.70;;;1.67;;
43606;SDS011;29197;44.788;10.366;2023-02-05T14:54:02;2.53;;;1.23;;
43606;SDS011;29197;44.788;10.366;2023-02-05T14:57:32;2.80;;;1.43;;
43606;SDS011;29197;44.788;10.366;2023-02-05T15:04:16;4.13;;;1.50;;
43606;SDS011;29197;44.788;10.366;2023-02-05T15:08:03;3.37;;;1.50;;
43606;SDS011;29197;44.788;10.366;2023-02-05T15:15:17;8.27;;;2.60;;
43606;SDS011;29197;44.788;10.366;2023-02-05T15:18:19;3.50;;;2.10;;
43606;SDS011;29197;44.788;10.366;2023-02-05T15:28:41;3.60;;;1.80;;
43606;SDS011;29197;44.788;10.366;2023-02-05T15:43:21;3.47;;;1.53;;
43606;SDS011;29197;44.788;10.366;2023-02-05T15:49:37;2.90;;;1.70;;
43606;SDS011;29197;44.788;10.366;2023-02-05T15:56:31;4.50;;;1.93;;
43606;SDS011;29197;44.788;10.366;2023-02-05T15:59:58;4.50;;;1.80;;
43606;SDS011;29197;44.788;10.366;2023-02-05T16:03:23;5.47;;;2.40;;
43606;SDS011;29197;44.788;10.366;2023-02-05T16:06:34;6.40;;;1.70;;
43606;SDS011;29197;44.788;10.366;2023-02-05T16:13:27;2.43;;;1.83;;
43606;SDS011;29197;44.788;10.366;2023-02-05T16:16:16;3.70;;;2.03;;
43606;SDS011;29197;44.788;10.366;2023-02-05T16:19:12;8.63;;;2.37;;
43606;SDS011;29197;44.788;10.366;2023-02-05T16:22:23;3.27;;;2.03;;
43606;SDS011;29197;44.788;10.366;2023-02-05T16:25:31;5.27;;;2.77;;
43606;SDS011;29197;44.788;10.366;2023-02-05T16:28:32;6.23;;;2.40;;
43606;SDS011;29197;44.788;10.366;2023-02-05T16:31:29;4.87;;;2.17;;
43606;SDS011;29197;44.788;10.366;2023-02-05T16:34:27;5.97;;;2.90;;
43606;SDS011;29197;44.788;10.366;2023-02-05T16:37:20;4.93;;;2.77;;
43606;SDS011;29197;44.788;10.366;2023-02-05T16:40:17;8.23;;;3.23;;
43606;SDS011;29197;44.788;10.366;2023-02-05T16:43:26;12.17;;;3.03;;
43606;SDS011;29197;44.788;10.366;2023-02-05T16:46:28;6.07;;;3.00;;
43606;SDS011;29197;44.788;10.366;2023-02-05T16:52:28;21.70;;;8.97;;
43606;SDS011;29197;44.788;10.366;2023-02-05T16:58:27;6.77;;;2.90;;
43606;SDS011;29197;44.788;10.366;2023-02-05T17:01:23;7.43;;;2.33;;
43606;SDS011;29197;44.788;10.366;2023-02-05T17:04:18;4.50;;;2.97;;
43606;SDS011;29197;44.788;10.366;2023-02-05T17:07:14;5.80;;;3.40;;
43606;SDS011;29197;44.788;10.366;2023-02-05T17:10:16;7.70;;;2.20;;
43606;SDS011;29197;44.788;10.366;2023-02-05T17:13:10;5.47;;;2.43;;
43606;SDS011;29197;44.788;10.366;2023-02-05T17:16:18;5.10;;;2.60;;
43606;SDS011;29197;44.788;10.366;2023-02-05T17:22:20;6.67;;;3.10;;
43606;SDS011;29197;44.788;10.366;2023-02-05T17:25:08;8.00;;;2.73;;
43606;SDS011;29197;44.788;10.366;2023-02-05T17:27:57;5.70;;;2.77;;
43606;SDS011;29197;44.788;10.366;2023-02-05T17:30:46;4.97;;;2.40;;
43606;SDS011;29197;44.788;10.366;2023-02-05T17:33:36;7.97;;;2.50;;
43606;SDS011;29197;44.788;10.366;2023-02-05T17:36:26;5.63;;;3.33;;
43606;SDS011;29197;44.788;10.366;2023-02-05T17:39:14;7.60;;;3.83;;
43606;SDS011;29197;44.788;10.366;2023-02-05T17:42:03;7.87;;;4.10;;
43606;SDS011;29197;44.788;10.366;2023-02-05T17:44:53;9.83;;;5.00;;
43606;SDS011;29197;44.788;10.366;2023-02-05T17:47:41;10.50;;;5.10;;
43606;SDS011;29197;44.788;10.366;2023-02-05T17:50:30;6.40;;;3.73;;
43606;SDS011;29197;44.788;10.366;2023-02-05T17:53:23;7.83;;;3.13;;
43606;SDS011;29197;44.788;10.366;2023-02-05T17:56:11;11.43;;;3.50;;
43606;SDS011;29197;44.788;10.366;2023-02-05T17:59:00;8.07;;;3.37;;
43606;SDS011;29197;44.788;10.366;2023-02-05T18:01:49;9.63;;;3.83;;
43606;SDS011;29197;44.788;10.366;2023-02-05T18:04:39;10.83;;;4.43;;
43606;SDS011;29197;44.788;10.366;2023-02-05T18:07:28;10.80;;;5.23;;
43606;SDS011;29197;44.788;10.366;2023-02-05T18:10:20;8.90;;;3.47;;
43606;SDS011;29197;44.788;10.366;2023-02-05T18:13:11;11.90;;;4.50;;
43606;SDS011;29197;44.788;10.366;2023-02-05T18:16:02;8.47;;;3.80;;
43606;SDS011;29197;44.788;10.366;2023-02-05T18:18:51;30.17;;;13.97;;
43606;SDS011;29197;44.788;10.366;2023-02-05T18:21:40;4.67;;;3.30;;
43606;SDS011;29197;44.788;10.366;2023-02-05T18:24:28;8.93;;;3.33;;
43606;SDS011;29197;44.788;10.366;2023-02-05T18:27:18;9.70;;;4.27;;
43606;SDS011;29197;44.788;10.366;2023-02-05T18:30:07;9.30;;;3.80;;
43606;SDS011;29197;44.788;10.366;2023-02-05T18:32:56;10.10;;;3.13;;
43606;SDS011;29197;44.788;10.366;2023-02-05T18:35:45;8.50;;;3.17;;
43606;SDS011;29197;44.788;10.366;2023-02-05T18:38:33;7.73;;;3.07;;
43606;SDS011;29197;44.788;10.366;2023-02-05T18:41:23;10.30;;;4.00;;
43606;SDS011;29197;44.788;10.366;2023-02-05T18:44:15;8.40;;;3.67;;
43606;SDS011;29197;44.788;10.366;2023-02-05T18:47:04;9.33;;;4.83;;
43606;SDS011;29197;44.788;10.366;2023-02-05T18:49:53;10.60;;;5.97;;
43606;SDS011;29197;44.788;10.366;2023-02-05T18:52:42;10.57;;;4.70;;
43606;SDS011;29197;44.788;10.366;2023-02-05T18:55:30;8.93;;;4.27;;
43606;SDS011;29197;44.788;10.366;2023-02-05T18:58:21;7.37;;;4.10;;
43606;SDS011;29197;44.788;10.366;2023-02-05T19:01:11;7.33;;;3.80;;
43606;SDS011;29197;44.788;10.366;2023-02-05T19:04:01;19.27;;;8.73;;
43606;SDS011;29197;44.788;10.366;2023-02-05T19:06:52;7.17;;;4.20;;
43606;SDS011;29197;44.788;10.366;2023-02-05T19:09:41;8.60;;;3.40;;
43606;SDS011;29197;44.788;10.366;2023-02-05T19:12:29;4.57;;;3.00;;
43606;SDS011;29197;44.788;10.366;2023-02-05T19:15:18;7.70;;;3.60;;
43606;SDS011;29197;44.788;10.366;2023-02-05T19:18:08;4.90;;;3.20;;
43606;SDS011;29197;44.788;10.366;2023-02-05T19:21:01;11.47;;;4.27;;